createdAt,value
2023-04-11T00:00:20.834Z,11.60
2023-04-11T00:02:49.519Z,11.70
2023-04-11T00:05:18.111Z,11.70
2023-04-11T00:07:46.701Z,11.80
2023-04-11T00:10:15.520Z,11.80
2023-04-11T00:12:44.119Z,11.70
2023-04-11T00:15:12.897Z,11.50
2023-04-11T00:17:45.762Z,11.30
2023-04-11T00:20:14.845Z,11.30
2023-04-11T00:22:43.898Z,11.30
2023-04-11T00:25:13.288Z,11.30
2023-04-11T00:27:41.970Z,11.40
2023-04-11T00:30:11.272Z,11.50
2023-04-11T00:32:39.817Z,11.50
2023-04-11T00:35:10.765Z,11.40
2023-04-11T00:37:44.362Z,11.50
2023-04-11T00:40:17.837Z,11.60
2023-04-11T00:42:46.521Z,11.60
2023-04-11T00:45:15.098Z,11.60
2023-04-11T00:47:44.057Z,11.60
2023-04-11T00:50:16.077Z,11.70
2023-04-11T00:52:48.481Z,11.60
2023-04-11T00:55:17.994Z,11.60
2023-04-11T00:57:47.156Z,11.70
2023-04-11T01:00:16.501Z,11.70
2023-04-11T01:02:45.361Z,11.50
2023-04-11T01:05:17.146Z,11.60
2023-04-11T01:07:49.924Z,11.40
2023-04-11T01:10:19.489Z,11.30
2023-04-11T01:12:48.470Z,11.40
2023-04-11T01:15:17.262Z,11.40
2023-04-11T01:17:48.239Z,11.40
2023-04-11T01:20:18.333Z,11.30
2023-04-11T01:22:49.408Z,11.30
2023-04-11T01:25:22.395Z,11.40
2023-04-11T01:27:51.205Z,11.40
2023-04-11T01:30:19.848Z,11.20
2023-04-11T01:32:50.781Z,11.00
2023-04-11T01:35:20.339Z,10.90
2023-04-11T01:37:49.897Z,10.90
2023-04-11T01:40:21.548Z,11.00
2023-04-11T01:42:54.180Z,10.90
2023-04-11T01:45:23.382Z,11.00
2023-04-11T01:47:54.737Z,10.90
2023-04-11T01:50:23.526Z,10.90
2023-04-11T01:52:53.196Z,10.70
2023-04-11T01:55:24.081Z,10.70
2023-04-11T01:57:52.628Z,10.70
2023-04-11T02:00:22.102Z,10.50
2023-04-11T02:02:50.793Z,10.30
2023-04-11T02:05:20.634Z,10.30
2023-04-11T02:07:49.169Z,10.10
2023-04-11T02:10:20.015Z,10.10
2023-04-11T02:12:50.018Z,10.20
2023-04-11T02:15:18.759Z,10.20
2023-04-11T02:17:47.432Z,10.10
2023-04-11T02:20:17.236Z,9.90
2023-04-11T02:22:46.631Z,10.10
2023-04-11T02:25:17.776Z,10.00
2023-04-11T02:27:46.400Z,10.00
2023-04-11T02:30:16.426Z,9.80
2023-04-11T02:32:46.794Z,9.70
2023-04-11T02:35:16.533Z,9.70
2023-04-11T02:37:45.696Z,9.80
2023-04-11T02:40:14.387Z,9.90
2023-04-11T02:42:43.444Z,10.00
2023-04-11T02:45:13.052Z,10.10
2023-04-11T02:47:43.063Z,9.90
2023-04-11T02:50:12.892Z,9.90
2023-04-11T02:52:49.500Z,9.80
2023-04-11T02:55:24.324Z,9.70
2023-04-11T02:57:53.696Z,9.70
2023-04-11T03:00:23.433Z,9.70
2023-04-11T03:03:01.005Z,9.70
2023-04-11T03:05:30.977Z,9.60
2023-04-11T03:07:59.579Z,9.50
2023-04-11T03:10:31.216Z,9.50
2023-04-11T03:13:01.692Z,9.50
2023-04-11T03:15:32.390Z,9.50
2023-04-11T03:18:07.198Z,9.40
2023-04-11T03:20:39.021Z,9.40
2023-04-11T03:23:09.339Z,9.50
2023-04-11T03:25:39.066Z,9.30
2023-04-11T03:28:07.956Z,9.30
2023-04-11T03:30:40.301Z,9.30
2023-04-11T03:33:11.671Z,9.40
2023-04-11T03:35:40.244Z,9.40
2023-04-11T03:38:08.940Z,9.40
2023-04-11T03:40:38.097Z,9.30
2023-04-11T03:43:21.523Z,9.20
2023-04-11T03:45:53.576Z,9.00
2023-04-11T03:48:36.359Z,9.10
2023-04-11T03:51:09.272Z,8.90
2023-04-11T03:53:47.762Z,8.90
2023-04-11T03:56:45.573Z,8.70
2023-04-11T03:59:21.506Z,8.70
2023-04-11T04:02:10.492Z,8.80
2023-04-11T04:04:48.889Z,8.90
2023-04-11T04:07:32.943Z,8.90
2023-04-11T04:10:11.398Z,9.00
2023-04-11T04:12:41.826Z,8.90
2023-04-11T04:15:15.517Z,8.80
2023-04-11T04:17:48.041Z,8.80
2023-04-11T04:20:28.711Z,8.90
2023-04-11T04:23:00.940Z,9.10
2023-04-11T04:25:42.344Z,9.20
2023-04-11T04:28:17.115Z,9.20
2023-04-11T04:30:50.237Z,9.10
2023-04-11T04:33:18.971Z,9.20
2023-04-11T04:35:52.764Z,9.10
2023-04-11T04:38:21.585Z,9.10
2023-04-11T04:40:54.920Z,9.00
2023-04-11T04:43:27.437Z,8.90
2023-04-11T04:46:00.550Z,8.90
2023-04-11T04:48:37.875Z,9.00
2023-04-11T04:51:09.135Z,9.10
2023-04-11T04:53:39.031Z,9.00
2023-04-11T04:56:10.731Z,9.00
2023-04-11T04:58:42.562Z,9.10
2023-04-11T05:01:14.456Z,9.20
2023-04-11T05:03:46.965Z,9.20
2023-04-11T05:06:24.890Z,9.30
2023-04-11T05:08:56.441Z,9.40
2023-04-11T05:11:25.320Z,9.50
2023-04-11T05:13:54.270Z,9.40
2023-04-11T05:16:23.169Z,9.40
2023-04-11T05:18:51.799Z,9.40
2023-04-11T05:21:20.470Z,9.50
2023-04-11T05:23:54.288Z,9.60
2023-04-11T05:26:23.300Z,9.70
2023-04-11T05:28:52.596Z,9.80
2023-04-11T05:31:25.896Z,10.00
2023-04-11T05:33:55.909Z,9.90
2023-04-11T05:36:25.942Z,9.90
2023-04-11T05:38:56.785Z,10.00
2023-04-11T05:41:25.634Z,10.10
2023-04-11T05:43:54.740Z,10.30
2023-04-11T05:46:23.519Z,10.30
2023-04-11T05:48:52.265Z,10.30
2023-04-11T05:51:21.133Z,10.40
2023-04-11T05:53:49.646Z,10.50
2023-04-11T05:56:19.845Z,10.50
2023-04-11T05:58:48.515Z,10.70
2023-04-11T06:01:19.721Z,10.80
2023-04-11T06:03:48.804Z,11.00
2023-04-11T06:06:17.894Z,11.10
2023-04-11T06:08:46.653Z,11.20
2023-04-11T06:11:15.269Z,11.30
2023-04-11T06:13:45.344Z,11.40
2023-04-11T06:16:14.027Z,11.40
2023-04-11T06:18:43.763Z,11.60
2023-04-11T06:21:12.566Z,11.70
2023-04-11T06:23:41.174Z,11.80
2023-04-11T06:26:11.282Z,11.90
2023-04-11T06:28:40.038Z,12.00
2023-04-11T06:31:11.698Z,12.10
2023-04-11T06:33:41.655Z,12.20
2023-04-11T06:36:13.340Z,12.30
2023-04-11T06:38:42.585Z,12.30
2023-04-11T06:41:11.163Z,12.40
2023-04-11T06:43:39.750Z,12.40
2023-04-11T06:46:09.337Z,12.40
2023-04-11T06:48:39.349Z,12.40
2023-04-11T06:51:09.280Z,12.30
2023-04-11T06:53:37.979Z,12.30
2023-04-11T06:56:07.274Z,12.40
2023-04-11T06:58:36.863Z,12.40
2023-04-11T07:01:06.113Z,12.40
2023-04-11T07:03:35.039Z,12.50
2023-04-11T07:06:05.577Z,12.60
2023-04-11T07:08:34.477Z,12.70
2023-04-11T07:11:03.093Z,12.70
2023-04-11T07:13:32.041Z,12.80
2023-04-11T07:16:00.693Z,13.00
2023-04-11T07:18:29.318Z,13.20
2023-04-11T07:20:57.865Z,13.20
2023-04-11T07:23:30.491Z,13.20
2023-04-11T07:25:59.157Z,13.20
2023-04-11T07:28:28.993Z,13.20
2023-04-11T07:30:57.937Z,13.00
2023-04-11T07:33:26.572Z,13.00
2023-04-11T07:35:55.186Z,13.10
2023-04-11T07:38:29.688Z,13.20
2023-04-11T07:41:01.726Z,13.30
2023-04-11T07:43:31.454Z,13.30
2023-04-11T07:46:00.895Z,13.40
2023-04-11T07:48:31.596Z,13.50
2023-04-11T07:51:00.225Z,13.60
2023-04-11T07:53:31.056Z,13.60
2023-04-11T07:56:01.110Z,13.60
2023-04-11T07:58:30.306Z,13.70
2023-04-11T08:00:59.430Z,13.80
2023-04-11T08:03:28.413Z,14.00
2023-04-11T08:05:57.272Z,14.10
2023-04-11T08:08:26.104Z,14.10
2023-04-11T08:10:54.729Z,14.20
2023-04-11T08:13:24.615Z,14.30
2023-04-11T08:15:53.199Z,14.40
2023-04-11T08:18:23.373Z,14.50
2023-04-11T08:20:52.032Z,14.50
2023-04-11T08:23:20.717Z,14.50
2023-04-11T08:25:49.408Z,14.50
2023-04-11T08:28:18.351Z,14.50
2023-04-11T08:30:48.388Z,14.60
2023-04-11T08:33:17.104Z,14.50
2023-04-11T08:35:45.764Z,14.60
2023-04-11T08:38:14.468Z,14.70
2023-04-11T08:40:42.986Z,14.90
2023-04-11T08:43:13.187Z,15.00
2023-04-11T08:45:41.964Z,15.10
2023-04-11T08:48:12.616Z,15.10
2023-04-11T08:50:42.468Z,15.00
2023-04-11T08:53:11.185Z,15.10
2023-04-11T08:55:47.842Z,15.20
2023-04-11T08:58:16.812Z,15.30
2023-04-11T09:00:45.564Z,15.40
2023-04-11T09:03:17.383Z,15.40
2023-04-11T09:05:47.213Z,15.60
2023-04-11T09:08:16.721Z,15.70
2023-04-11T09:10:46.711Z,15.80
2023-04-11T09:13:22.077Z,15.80
2023-04-11T09:16:06.227Z,15.90
2023-04-11T09:18:37.514Z,16.00
2023-04-11T09:21:07.729Z,16.00
2023-04-11T09:23:36.512Z,16.00
2023-04-11T09:26:07.162Z,16.10
2023-04-11T09:28:43.377Z,16.30
2023-04-11T09:31:13.932Z,16.40
2023-04-11T09:33:54.821Z,16.50
2023-04-11T09:36:25.426Z,16.60
2023-04-11T09:38:54.273Z,16.60
2023-04-11T09:41:32.350Z,16.50
2023-04-11T09:44:01.539Z,16.60
2023-04-11T09:46:30.204Z,16.70
2023-04-11T09:49:01.799Z,16.80
2023-04-11T09:51:36.548Z,17.10
2023-04-11T09:54:06.570Z,17.20
2023-04-11T09:56:35.645Z,17.20
2023-04-11T09:59:05.668Z,17.20
2023-04-11T10:01:34.547Z,17.00
2023-04-11T10:04:04.965Z,17.00
2023-04-11T10:06:46.951Z,16.90
2023-04-11T10:09:16.906Z,17.00
2023-04-11T10:11:46.687Z,17.10
2023-04-11T10:14:45.758Z,17.10
2023-04-11T10:17:20.533Z,17.40
2023-04-11T10:19:56.688Z,17.50
2023-04-11T10:23:00.115Z,17.50
2023-04-11T10:25:49.707Z,17.40
2023-04-11T10:28:32.929Z,17.30
2023-04-11T10:31:09.314Z,17.50
2023-04-11T10:33:39.913Z,17.40
2023-04-11T10:36:12.499Z,17.50
2023-04-11T10:38:52.535Z,17.60
2023-04-11T10:41:29.008Z,17.70
2023-04-11T10:44:15.955Z,18.10
2023-04-11T10:46:49.451Z,18.20
2023-04-11T10:49:38.605Z,18.10
2023-04-11T10:52:24.939Z,17.90
2023-04-11T10:54:54.686Z,17.90
2023-04-11T10:57:23.985Z,17.90
2023-04-11T11:00:02.462Z,18.00
2023-04-11T11:02:39.764Z,17.80
2023-04-11T11:05:22.615Z,17.70
2023-04-11T11:07:54.747Z,17.80
2023-04-11T11:10:40.171Z,18.00
2023-04-11T11:13:10.562Z,18.20
2023-04-11T11:15:39.958Z,18.50
2023-04-11T11:18:10.635Z,18.40
2023-04-11T11:20:39.273Z,18.40
2023-04-11T11:23:11.629Z,18.70
2023-04-11T11:25:40.268Z,19.00
2023-04-11T11:28:10.309Z,18.90
2023-04-11T11:30:39.215Z,18.90
2023-04-11T11:33:26.710Z,19.00
2023-04-11T11:35:58.502Z,19.00
2023-04-11T11:38:30.329Z,18.80
2023-04-11T11:41:00.249Z,18.80
2023-04-11T11:43:29.172Z,18.80
2023-04-11T11:46:15.387Z,19.10
2023-04-11T11:48:45.256Z,19.20
2023-04-11T11:51:14.279Z,19.30
2023-04-11T11:53:44.347Z,19.40
2023-04-11T11:56:17.142Z,19.20
2023-04-11T11:58:46.390Z,19.20
2023-04-11T12:01:19.530Z,19.00
2023-04-11T12:03:51.750Z,18.90
2023-04-11T12:06:20.881Z,18.70
2023-04-11T12:08:54.004Z,18.30
2023-04-11T12:11:25.490Z,18.20
2023-04-11T12:13:55.112Z,17.60
2023-04-11T12:16:24.720Z,17.30
2023-04-11T12:18:53.433Z,17.40
2023-04-11T12:21:22.105Z,17.70
2023-04-11T12:23:52.067Z,17.50
2023-04-11T12:26:21.852Z,17.30
2023-04-11T12:28:50.727Z,16.90
2023-04-11T12:31:20.183Z,16.90
2023-04-11T12:33:48.890Z,17.00
2023-04-11T12:36:17.404Z,17.20
2023-04-11T12:38:45.888Z,17.60
2023-04-11T12:41:31.681Z,17.60
2023-04-11T12:44:02.582Z,17.40
2023-04-11T12:46:31.279Z,17.30
2023-04-11T12:48:59.856Z,17.30
2023-04-11T12:51:28.717Z,17.30
2023-04-11T12:53:57.328Z,17.40
2023-04-11T12:56:27.357Z,17.80
2023-04-11T12:58:56.209Z,18.10
2023-04-11T13:01:24.975Z,18.30
2023-04-11T13:03:53.599Z,18.40
2023-04-11T13:06:23.471Z,18.30
2023-04-11T13:08:51.972Z,18.40
2023-04-11T13:11:20.479Z,18.30
2023-04-11T13:13:50.765Z,17.70
2023-04-11T13:16:19.375Z,17.70
2023-04-11T13:18:47.976Z,17.90
2023-04-11T13:21:16.848Z,17.90
2023-04-11T13:23:46.812Z,17.80
2023-04-11T13:26:15.487Z,17.80
2023-04-11T13:28:44.099Z,18.10
2023-04-11T13:31:14.358Z,18.40
2023-04-11T13:33:45.014Z,19.10
2023-04-11T13:36:13.686Z,19.90
2023-04-11T13:38:42.397Z,20.90
2023-04-11T13:41:12.186Z,22.30
2023-04-11T13:43:41.772Z,21.90
2023-04-11T13:46:10.362Z,21.60
2023-04-11T13:48:40.322Z,21.60
2023-04-11T13:51:09.531Z,22.20
2023-04-11T13:53:38.145Z,23.00
2023-04-11T13:56:08.159Z,24.40
2023-04-11T13:58:38.233Z,23.60
2023-04-11T14:01:07.459Z,23.90
2023-04-11T14:03:36.132Z,23.70
2023-04-11T14:06:09.026Z,24.10
2023-04-11T14:08:38.277Z,24.90
2023-04-11T14:11:07.250Z,25.40
2023-04-11T14:13:35.838Z,25.00
2023-04-11T14:16:09.206Z,23.50
2023-04-11T14:18:38.378Z,23.30
2023-04-11T14:21:08.993Z,24.10
2023-04-11T14:23:37.778Z,23.00
2023-04-11T14:26:07.124Z,22.60
2023-04-11T14:28:38.231Z,23.30
2023-04-11T14:31:07.435Z,23.40
2023-04-11T14:33:36.095Z,24.40
2023-04-11T14:36:04.734Z,24.50
2023-04-11T14:38:34.848Z,24.40
2023-04-11T14:41:03.401Z,24.90
2023-04-11T14:43:31.968Z,24.60
2023-04-11T14:46:00.490Z,25.20
2023-04-11T14:48:29.353Z,25.50
2023-04-11T14:50:57.982Z,25.10
2023-04-11T14:53:26.714Z,24.20
2023-04-11T14:55:56.736Z,24.10
2023-04-11T14:58:25.498Z,23.00
2023-04-11T15:00:54.046Z,22.30
2023-04-11T15:03:22.892Z,22.20
2023-04-11T15:05:51.700Z,22.20
2023-04-11T15:08:21.206Z,22.10
2023-04-11T15:10:54.361Z,21.90
2023-04-11T15:13:25.387Z,21.20
2023-04-11T15:15:54.623Z,20.00
2023-04-11T15:18:25.452Z,19.50
2023-04-11T15:20:54.210Z,19.10
2023-04-11T15:23:23.308Z,18.70
2023-04-11T15:25:55.664Z,18.40
2023-04-11T15:28:26.855Z,18.00
2023-04-11T15:30:56.075Z,17.90
2023-04-11T15:33:24.708Z,17.80
2023-04-11T15:35:54.861Z,17.80
2023-04-11T15:38:23.669Z,17.90
2023-04-11T15:40:52.695Z,17.80
2023-04-11T15:43:21.773Z,17.80
2023-04-11T15:45:52.459Z,18.00
2023-04-11T15:48:21.065Z,18.00
2023-04-11T15:50:50.983Z,17.90
2023-04-11T15:53:19.630Z,17.70
2023-04-11T15:55:49.209Z,17.40
2023-04-11T15:58:17.773Z,17.40
2023-04-11T16:00:47.078Z,17.30
2023-04-11T16:03:18.200Z,17.10
2023-04-11T16:05:50.919Z,17.00
2023-04-11T16:08:19.418Z,16.80
2023-04-11T16:10:47.953Z,16.60
2023-04-11T16:13:16.541Z,16.40
2023-04-11T16:15:45.117Z,16.50
2023-04-11T16:18:13.786Z,16.50
2023-04-11T16:20:43.819Z,16.60
2023-04-11T16:23:12.435Z,16.50
2023-04-11T16:25:41.475Z,16.50
2023-04-11T16:28:10.034Z,16.20
2023-04-11T16:30:38.632Z,16.10
2023-04-11T16:33:07.535Z,16.00
2023-04-11T16:35:36.287Z,15.80
2023-04-11T16:38:06.322Z,15.70
2023-04-11T16:40:35.408Z,15.60
2023-04-11T16:43:03.949Z,15.50
2023-04-11T16:45:34.277Z,15.40
2023-04-11T16:48:03.492Z,15.30
2023-04-11T16:50:32.226Z,15.40
2023-04-11T16:53:00.922Z,15.30
2023-04-11T16:55:30.994Z,15.20
2023-04-11T16:57:59.570Z,15.20
2023-04-11T17:00:29.483Z,15.20
2023-04-11T17:02:58.867Z,15.10
2023-04-11T17:05:27.594Z,15.10
2023-04-11T17:07:56.079Z,15.00
2023-04-11T17:10:24.574Z,15.10
2023-04-11T17:12:54.772Z,15.00
2023-04-11T17:15:23.482Z,14.90
2023-04-11T17:17:52.057Z,14.80
2023-04-11T17:20:22.156Z,14.80
2023-04-11T17:22:50.871Z,14.90
2023-04-11T17:25:19.406Z,14.80
2023-04-11T17:27:47.913Z,14.70
2023-04-11T17:30:18.312Z,14.70
2023-04-11T17:32:49.153Z,14.60
2023-04-11T17:35:17.744Z,14.60
2023-04-11T17:37:46.460Z,14.50
2023-04-11T17:40:15.497Z,14.60
2023-04-11T17:42:45.965Z,14.60
2023-04-11T17:45:18.189Z,14.50
2023-04-11T17:47:48.855Z,14.50
2023-04-11T17:50:18.333Z,14.50
2023-04-11T17:52:47.600Z,14.50
2023-04-11T17:55:17.567Z,14.40
2023-04-11T17:57:47.429Z,14.50
2023-04-11T18:00:19.606Z,14.40
2023-04-11T18:02:54.707Z,14.30
2023-04-11T18:05:26.280Z,14.20
2023-04-11T18:07:57.427Z,14.30
2023-04-11T18:10:27.696Z,14.20
2023-04-11T18:12:56.978Z,14.20
2023-04-11T18:15:27.014Z,14.20
2023-04-11T18:17:56.990Z,14.20
2023-04-11T18:20:25.732Z,14.20
2023-04-11T18:22:56.370Z,14.20
2023-04-11T18:25:25.464Z,14.20
2023-04-11T18:27:54.088Z,14.20
2023-04-11T18:30:23.604Z,14.10
2023-04-11T18:32:54.031Z,14.10
2023-04-11T18:35:25.337Z,14.10
2023-04-11T18:37:56.348Z,14.10
2023-04-11T18:40:25.005Z,14.10
2023-04-11T18:42:55.464Z,14.10
2023-04-11T18:45:25.334Z,14.10
2023-04-11T18:47:54.659Z,14.10
2023-04-11T18:50:24.828Z,14.00
2023-04-11T18:52:55.952Z,14.00
2023-04-11T18:55:26.034Z,14.00
2023-04-11T18:57:58.501Z,14.00
2023-04-11T19:00:31.406Z,13.90
2023-04-11T19:03:00.143Z,13.70
2023-04-11T19:05:30.786Z,13.70
2023-04-11T19:08:00.996Z,13.40
2023-04-11T19:10:30.196Z,13.40
2023-04-11T19:12:58.785Z,13.20
2023-04-11T19:15:27.445Z,13.20
2023-04-11T19:17:56.201Z,13.10
2023-04-11T19:20:26.702Z,13.00
2023-04-11T19:22:56.681Z,12.90
2023-04-11T19:25:25.382Z,13.00
2023-04-11T19:27:53.903Z,13.00
2023-04-11T19:30:22.568Z,13.00
2023-04-11T19:32:51.292Z,13.00
2023-04-11T19:35:24.275Z,12.90
2023-04-11T19:37:54.499Z,12.80
2023-04-11T19:40:25.081Z,12.70
2023-04-11T19:42:53.735Z,12.70
2023-04-11T19:45:22.302Z,12.70
2023-04-11T19:47:51.038Z,12.80
2023-04-11T19:50:19.692Z,12.90
2023-04-11T19:52:48.325Z,12.80
2023-04-11T19:55:16.875Z,12.80
2023-04-11T19:57:46.845Z,12.80
2023-04-11T20:00:17.481Z,12.80
2023-04-11T20:02:48.263Z,12.80
2023-04-11T20:05:18.452Z,12.70
2023-04-11T20:07:47.951Z,12.70
2023-04-11T20:10:17.620Z,12.60
2023-04-11T20:12:47.689Z,12.50
2023-04-11T20:15:16.263Z,12.40
2023-04-11T20:17:46.218Z,12.20
2023-04-11T20:20:15.798Z,12.20
2023-04-11T20:22:45.925Z,12.20
2023-04-11T20:25:14.727Z,12.30
2023-04-11T20:27:44.166Z,12.20
2023-04-11T20:30:16.710Z,12.10
2023-04-11T20:32:45.799Z,12.20
2023-04-11T20:35:14.550Z,12.00
2023-04-11T20:37:44.692Z,12.00
2023-04-11T20:40:14.450Z,12.00
2023-04-11T20:42:45.545Z,12.00
2023-04-11T20:45:17.156Z,11.90
2023-04-11T20:47:47.786Z,11.90
2023-04-11T20:50:17.864Z,11.80
2023-04-11T20:52:50.632Z,11.80
2023-04-11T20:55:20.928Z,11.80
2023-04-11T20:57:49.793Z,11.70
2023-04-11T21:00:21.068Z,11.70
2023-04-11T21:02:51.983Z,11.60
2023-04-11T21:05:22.106Z,11.60
2023-04-11T21:07:50.667Z,11.60
2023-04-11T21:10:21.096Z,11.60
2023-04-11T21:12:51.839Z,11.70
2023-04-11T21:15:22.823Z,11.70
2023-04-11T21:17:52.396Z,11.70
2023-04-11T21:20:22.616Z,11.70
2023-04-11T21:22:53.832Z,11.60
2023-04-11T21:25:23.247Z,11.60
2023-04-11T21:27:51.803Z,11.60
2023-04-11T21:30:21.882Z,11.60
2023-04-11T21:32:50.405Z,11.70
2023-04-11T21:35:18.996Z,11.70
2023-04-11T21:37:49.239Z,11.80
2023-04-11T21:40:18.796Z,11.80
2023-04-11T21:42:47.366Z,11.70
2023-04-11T21:45:16.843Z,11.70
2023-04-11T21:47:46.881Z,11.70
2023-04-11T21:50:15.684Z,11.70
2023-04-11T21:52:44.700Z,11.70
2023-04-11T21:55:13.948Z,11.70
2023-04-11T21:57:42.676Z,11.70
2023-04-11T22:00:12.525Z,11.70
2023-04-11T22:02:41.995Z,11.60
2023-04-11T22:05:12.841Z,11.60
2023-04-11T22:07:48.615Z,11.60
2023-04-11T22:10:23.988Z,11.60
2023-04-11T22:12:54.697Z,11.50
2023-04-11T22:15:24.344Z,11.50
2023-04-11T22:17:56.536Z,11.60
2023-04-11T22:20:26.773Z,11.60
2023-04-11T22:22:56.877Z,11.40
2023-04-11T22:25:25.576Z,11.40
2023-04-11T22:27:54.927Z,11.40
2023-04-11T22:30:25.002Z,11.40
2023-04-11T22:32:54.568Z,11.40
2023-04-11T22:35:25.060Z,11.40
2023-04-11T22:37:57.351Z,11.40
2023-04-11T22:40:26.022Z,11.40
2023-04-11T22:42:55.255Z,11.40
2023-04-11T22:45:24.597Z,11.30
2023-04-11T22:47:55.749Z,11.20
2023-04-11T22:50:24.483Z,11.20
2023-04-11T22:52:54.959Z,11.10
2023-04-11T22:55:24.895Z,11.00
2023-04-11T22:57:53.508Z,10.90
2023-04-11T23:00:24.221Z,10.90
2023-04-11T23:02:52.952Z,10.90
2023-04-11T23:05:21.442Z,11.10
2023-04-11T23:07:50.068Z,11.00
2023-04-11T23:10:20.486Z,11.10
2023-04-11T23:12:49.635Z,11.00
2023-04-11T23:15:19.361Z,11.00
2023-04-11T23:17:47.953Z,11.00
2023-04-11T23:20:17.785Z,10.90
2023-04-11T23:22:46.463Z,10.90
2023-04-11T23:25:15.465Z,10.80
2023-04-11T23:27:46.022Z,10.90
2023-04-11T23:30:17.832Z,10.70
2023-04-11T23:32:47.250Z,10.70
2023-04-11T23:35:17.199Z,10.70
2023-04-11T23:37:46.104Z,10.70
2023-04-11T23:40:15.006Z,10.60
2023-04-11T23:42:45.300Z,10.60
2023-04-11T23:45:15.150Z,10.60
2023-04-11T23:47:43.806Z,10.60
2023-04-11T23:50:13.757Z,10.70
2023-04-11T23:52:42.899Z,10.80
2023-04-11T23:55:12.411Z,10.80
2023-04-11T23:57:41.084Z,10.80
